Time;durP1;ratioP1;P1;durP2;ratioP2;P2;SDS_P1;SDS_P2;PMS_P1;PMS_P2;Temp;Humidity;BMP_temperature;BMP_pressure;BME280_temperature;BME280_humidity;BME280_pressure;Samples;Min_cycle;Max_cycle;Signal;HPM_P1;HPM_P2
2023/04/19 00:02:17;;;;;;;6.43;5.47;;;;;;;13.13;74.90;99077.41;5092138;28;20067;-77
2023/04/19 00:04:43;;;;;;;5.60;5.10;;;;;;;12.67;74.96;99005.91;5092097;28;20017;-75
2023/04/19 00:07:09;;;;;;;5.05;4.55;;;;;;;13.20;75.02;99102.13;5092005;28;20027;-76
2023/04/19 00:09:35;;;;;;;5.13;4.72;;;;;;;13.20;74.81;99088.84;5092032;28;20023;-76
2023/04/19 00:12:01;;;;;;;4.75;4.35;;;;;;;12.79;75.03;99030.78;5091790;28;20408;-74
2023/04/19 00:14:27;;;;;;;5.45;4.88;;;;;;;12.78;74.55;99023.03;5091738;28;20047;-75
2023/04/19 00:16:52;;;;;;;5.53;4.97;;;;;;;13.09;74.49;99070.91;5091773;28;20125;-75
2023/04/19 00:19:17;;;;;;;5.63;5.13;;;;;;;12.71;74.63;99020.38;5091573;28;20028;-76
2023/04/19 00:21:43;;;;;;;6.45;5.00;;;;;;;12.67;74.78;99003.28;5091656;28;20032;-76
2023/04/19 00:24:08;;;;;;;5.30;4.80;;;;;;;13.11;74.84;99068.84;5091559;28;20478;-76
2023/04/19 00:26:34;;;;;;;5.97;5.40;;;;;;;12.93;74.90;99040.34;5090365;28;20052;-75
2023/04/19 00:28:59;;;;;;;6.80;5.72;;;;;;;12.72;74.95;99001.63;5091679;28;20590;-77
2023/04/19 00:31:25;;;;;;;5.80;5.30;;;;;;;12.99;74.98;99047.47;5090285;28;20066;-76
2023/04/19 00:33:50;;;;;;;6.20;5.60;;;;;;;12.91;74.92;99023.00;5091159;28;20031;-76
2023/04/19 00:36:16;;;;;;;5.13;4.60;;;;;;;13.13;74.91;99048.25;5091424;28;20034;-76
2023/04/19 00:38:41;;;;;;;21.02;12.48;;;;;;;12.27;75.20;98928.31;5090137;28;20024;-76
2023/04/19 00:41:06;;;;;;;5.72;4.35;;;;;;;13.01;75.07;99057.88;5091684;28;20095;-77
2023/04/19 00:43:32;;;;;;;4.90;4.40;;;;;;;12.82;75.14;99025.06;5091505;28;20481;-76
2023/04/19 00:45:58;;;;;;;5.95;5.15;;;;;;;12.83;75.02;99026.69;5091682;28;20469;-75
2023/04/19 00:48:24;;;;;;;6.63;4.88;;;;;;;12.71;74.94;99007.97;5091372;28;20558;-74
2023/04/19 00:50:50;;;;;;;5.10;3.95;;;;;;;13.00;75.16;99053.59;5092327;28;20046;-76
2023/04/19 00:53:15;;;;;;;5.38;3.90;;;;;;;12.98;75.04;99056.44;5091317;28;20024;-77
2023/04/19 00:55:41;;;;;;;4.88;4.00;;;;;;;12.66;75.11;99010.41;5091288;28;20089;-75
2023/04/19 00:58:08;;;;;;;5.47;3.90;;;;;;;12.64;74.76;98995.72;5091116;28;20500;-76
2023/04/19 01:00:34;;;;;;;5.45;4.07;;;;;;;12.78;74.76;99015.91;5089998;28;20453;-76
2023/04/19 01:03:00;;;;;;;4.82;4.10;;;;;;;12.36;74.60;98956.19;5091141;28;20493;-76
2023/04/19 01:05:26;;;;;;;5.25;4.75;;;;;;;12.65;74.75;99000.81;5091269;28;20027;-76
2023/04/19 01:07:51;;;;;;;5.47;4.75;;;;;;;12.96;74.54;99045.22;5091252;28;20024;-77
2023/04/19 01:10:17;;;;;;;6.50;5.53;;;;;;;12.93;74.43;99032.38;5091122;28;20024;-76
2023/04/19 01:12:42;;;;;;;5.20;4.70;;;;;;;12.92;74.56;99030.75;5091322;28;20023;-77
2023/04/19 01:15:08;;;;;;;5.75;5.20;;;;;;;12.46;74.38;98961.91;5091078;28;20047;-76
2023/04/19 01:17:34;;;;;;;20.40;13.50;;;;;;;12.54;74.26;98985.53;5090955;28;20516;-76
2023/04/19 01:20:06;;;;;;;11.30;8.13;;;;;;;12.78;74.44;99050.34;5090953;28;20073;-76
2023/04/19 01:22:32;;;;;;;6.05;5.43;;;;;;;12.32;74.59;98966.38;5091129;28;20508;-75
2023/04/19 01:24:58;;;;;;;5.63;5.03;;;;;;;12.79;74.55;99029.97;5091042;28;20020;-76
2023/04/19 01:27:23;;;;;;;6.07;5.47;;;;;;;12.64;74.32;99011.63;5070871;28;20029;-76
2023/04/19 01:29:49;;;;;;;8.43;5.93;;;;;;;12.56;74.58;98995.91;5070746;28;20092;-76
2023/04/19 01:32:16;;;;;;;6.18;5.55;;;;;;;12.84;74.47;99022.22;5070612;28;20052;-76
2023/04/19 01:34:41;;;;;;;5.72;4.90;;;;;;;12.50;74.61;98979.00;5070754;28;20509;-75
2023/04/19 01:37:07;;;;;;;6.70;5.47;;;;;;;12.44;74.53;98952.53;5070748;28;20078;-76
2023/04/19 01:39:33;;;;;;;6.47;5.78;;;;;;;12.38;74.36;98965.56;5070954;28;20028;-77
2023/04/19 01:41:58;;;;;;;5.88;5.10;;;;;;;12.62;74.47;99003.84;5070668;28;20016;-76
2023/04/19 01:44:23;;;;;;;5.97;5.25;;;;;;;12.75;74.36;99021.59;5073272;28;20463;-75
2023/04/19 01:46:49;;;;;;;6.55;5.68;;;;;;;12.65;74.92;99007.97;5074341;28;20048;-77
2023/04/19 01:49:15;;;;;;;6.68;5.45;;;;;;;12.75;74.71;99023.44;5074604;28;20048;-75
2023/04/19 01:51:40;;;;;;;6.03;5.43;;;;;;;12.34;74.69;98959.06;5074458;28;20016;-77
2023/04/19 01:54:06;;;;;;;6.85;5.47;;;;;;;12.14;74.93;98934.41;5072976;28;20413;-76
2023/04/19 01:56:32;;;;;;;6.40;5.70;;;;;;;12.33;74.83;98961.91;5074085;28;20035;-76
2023/04/19 01:58:57;;;;;;;7.85;6.35;;;;;;;12.70;75.19;99016.09;5073994;28;20509;-76
2023/04/19 02:01:22;;;;;;;7.32;6.40;;;;;;;12.32;74.90;98954.97;5074274;28;20025;-76
2023/04/19 02:03:48;;;;;;;8.80;5.95;;;;;;;12.21;74.86;98926.47;5074070;28;20025;-77
2023/04/19 02:06:13;;;;;;;7.15;6.45;;;;;;;12.78;74.65;99023.03;5074015;28;20440;-77
2023/04/19 02:08:40;;;;;;;7.40;6.60;;;;;;;12.75;74.44;99016.31;5073912;28;20024;-76
2023/04/19 02:11:11;;;;;;;9.00;7.22;;;;;;;12.79;74.99;99019.34;5073859;28;20558;-75
2023/04/19 02:13:36;;;;;;;7.80;6.97;;;;;;;12.70;74.93;99022.22;5073715;28;20040;-76
2023/04/19 02:16:02;;;;;;;9.40;8.07;;;;;;;12.79;74.84;99024.66;5074101;28;20086;-76
2023/04/19 02:18:28;;;;;;;10.15;9.07;;;;;;;12.57;74.99;99006.31;5073990;28;20021;-76
2023/04/19 02:20:54;;;;;;;12.38;10.48;;;;;;;12.21;74.96;98939.69;5073829;28;20048;-76
2023/04/19 02:23:20;;;;;;;11.75;10.52;;;;;;;12.69;74.99;99025.88;5073772;28;20161;-75
2023/04/19 02:25:45;;;;;;;12.43;10.95;;;;;;;12.48;75.08;99009.34;5080061;28;20540;-75
2023/04/19 02:28:11;;;;;;;13.82;11.55;;;;;;;11.93;74.99;98897.56;5092442;28;20070;-76
2023/04/19 02:30:36;;;;;;;15.68;12.60;;;;;;;12.19;74.93;98950.50;5092508;28;20086;-76
2023/04/19 02:33:02;;;;;;;12.77;11.48;;;;;;;12.47;74.85;98989.19;5093893;28;20035;-76
2023/04/19 02:35:27;;;;;;;11.98;10.13;;;;;;;12.64;74.98;99006.34;5093671;28;20020;-76
2023/04/19 02:37:53;;;;;;;12.15;10.00;;;;;;;12.67;74.77;99008.56;5093545;28;20020;-76
2023/04/19 02:40:18;;;;;;;11.07;9.40;;;;;;;12.59;75.14;98990.22;5093504;28;20458;-76
2023/04/19 02:42:43;;;;;;;13.90;11.57;;;;;;;12.22;74.75;98941.34;5093432;28;20489;-76
2023/04/19 02:45:09;;;;;;;11.02;9.13;;;;;;;12.20;74.69;98952.13;5093445;28;20052;-76
2023/04/19 02:47:34;;;;;;;10.48;8.80;;;;;;;12.37;74.89;98968.41;5092362;28;20016;-76
2023/04/19 02:50:00;;;;;;;8.90;7.40;;;;;;;12.60;74.91;98997.13;5093476;28;20026;-76
2023/04/19 02:52:26;;;;;;;8.43;7.55;;;;;;;12.61;75.05;99006.72;5093316;28;20028;-76
2023/04/19 02:54:52;;;;;;;7.78;7.00;;;;;;;12.44;74.96;98979.00;5093074;28;20028;-76
2023/04/19 02:57:17;;;;;;;6.75;6.05;;;;;;;12.34;74.96;98969.63;5093077;28;20099;-76
2023/04/19 02:59:43;;;;;;;7.93;6.68;;;;;;;12.46;74.92;98991.03;5093412;28;20489;-77
2023/04/19 03:02:08;;;;;;;6.75;6.15;;;;;;;12.33;74.92;98957.41;5093237;28;20024;-76
2023/04/19 03:04:35;;;;;;;6.38;5.55;;;;;;;12.17;74.65;98936.66;5093340;28;20050;-76
2023/04/19 03:07:00;;;;;;;6.50;5.90;;;;;;;12.66;74.85;99014.88;5093206;28;20095;-77
2023/04/19 03:09:26;;;;;;;6.70;5.82;;;;;;;12.24;74.92;98945.41;5093097;28;20099;-76
2023/04/19 03:11:52;;;;;;;5.90;5.40;;;;;;;12.27;74.58;98947.66;5093006;28;20017;-76
2023/04/19 03:14:17;;;;;;;6.30;5.43;;;;;;;12.52;74.59;98981.44;5091749;28;20466;-76
2023/04/19 03:16:43;;;;;;;5.40;4.90;;;;;;;12.08;74.76;98909.56;5092909;28;20020;-75
2023/04/19 03:19:08;;;;;;;5.43;4.90;;;;;;;12.36;74.57;98954.38;5091434;28;20031;-76
2023/04/19 03:21:33;;;;;;;5.55;5.05;;;;;;;12.24;74.44;98937.47;5092592;28;20020;-76
2023/04/19 03:24:00;;;;;;;6.75;6.00;;;;;;;12.65;74.74;98998.19;5092651;28;20036;-76
2023/04/19 03:26:26;;;;;;;5.53;5.03;;;;;;;12.32;74.58;98957.63;5092450;28;20044;-77
2023/04/19 03:28:51;;;;;;;6.97;6.28;;;;;;;12.66;74.87;99009.59;5092719;28;20109;-77
2023/04/19 03:31:17;;;;;;;6.30;5.43;;;;;;;12.66;74.58;99014.88;5092539;28;20073;-76
2023/04/19 03:33:42;;;;;;;6.50;5.90;;;;;;;12.37;74.83;98953.34;5092676;28;20086;-76
2023/04/19 03:36:08;;;;;;;7.07;6.47;;;;;;;12.22;74.37;98928.91;5092830;28;20492;-76
2023/04/19 03:38:33;;;;;;;7.15;6.45;;;;;;;12.27;74.42;98923.81;5092372;28;20115;-75
2023/04/19 03:40:59;;;;;;;7.05;6.35;;;;;;;12.56;74.80;98978.19;5092409;28;20054;-75
2023/04/19 03:43:24;;;;;;;8.13;7.32;;;;;;;11.96;74.67;98897.97;5091024;28;20027;-76
2023/04/19 03:45:50;;;;;;;9.27;8.23;;;;;;;12.50;74.52;98971.06;5092485;28;20020;-76
2023/04/19 03:48:16;;;;;;;9.55;8.52;;;;;;;12.69;74.37;99003.88;5092506;28;20046;-76
2023/04/19 03:50:41;;;;;;;9.70;8.70;;;;;;;12.69;74.40;99002.06;5091130;28;20034;-76
2023/04/19 03:53:06;;;;;;;9.57;8.60;;;;;;;12.53;74.58;98965.34;5090935;28;20028;-76
2023/04/19 03:55:32;;;;;;;8.35;7.55;;;;;;;12.64;74.72;98987.78;5092373;28;20028;-75
2023/04/19 03:57:58;;;;;;;9.52;8.57;;;;;;;12.78;74.43;99004.50;5092105;28;20028;-77
2023/04/19 04:00:23;;;;;;;8.13;7.38;;;;;;;12.62;74.18;98977.38;5092243;28;20031;-77
2023/04/19 04:02:48;;;;;;;9.60;8.52;;;;;;;12.82;74.28;99005.72;5090775;28;20024;-76
2023/04/19 04:05:14;;;;;;;9.95;8.75;;;;;;;12.48;74.65;98957.22;5090857;28;20028;-76
2023/04/19 04:07:39;;;;;;;9.30;8.45;;;;;;;12.57;74.33;98981.66;5091122;28;20070;-75
2023/04/19 04:10:05;;;;;;;10.52;9.43;;;;;;;12.85;74.28;99014.06;5092042;28;20020;-76
2023/04/19 04:12:31;;;;;;;9.05;8.05;;;;;;;12.32;74.60;98923.22;5091915;28;20524;-75
2023/04/19 04:14:56;;;;;;;10.68;9.55;;;;;;;12.34;74.58;98935.22;5091820;28;20027;-76
2023/04/19 04:17:23;;;;;;;9.02;8.13;;;;;;;12.28;74.52;98949.28;5091623;28;20107;-76
2023/04/19 04:19:49;;;;;;;11.38;9.10;;;;;;;12.69;74.46;99015.28;5090305;28;20035;-76
2023/04/19 04:22:15;;;;;;;10.27;9.27;;;;;;;12.83;74.58;99037.28;5091926;28;20023;-76
2023/04/19 04:24:41;;;;;;;11.63;9.07;;;;;;;12.63;74.77;98994.91;5091736;28;20036;-75
2023/04/19 04:27:09;;;;;;;12.65;10.73;;;;;;;12.54;74.63;98972.28;5091637;28;20482;-77
2023/04/19 04:29:36;;;;;;;14.10;12.32;;;;;;;12.66;74.74;98996.34;5090423;28;20024;-76
2023/04/19 04:32:02;;;;;;;13.63;11.40;;;;;;;12.45;74.88;98970.84;5090417;28;20559;-76
2023/04/19 04:34:28;;;;;;;14.75;13.15;;;;;;;12.80;74.97;99023.63;5091680;28;20494;-75
2023/04/19 04:36:53;;;;;;;15.27;13.20;;;;;;;12.03;74.96;98919.13;5091700;28;20064;-76
2023/04/19 04:39:18;;;;;;;15.18;13.57;;;;;;;12.29;74.95;98953.56;5091474;28;20024;-75
2023/04/19 04:41:45;;;;;;;20.35;13.68;;;;;;;12.66;75.44;99010.41;5091550;28;20077;-76
2023/04/19 04:44:11;;;;;;;16.35;13.77;;;;;;;12.00;75.14;98908.97;5091306;28;20417;-76
2023/04/19 04:46:36;;;;;;;15.35;13.75;;;;;;;12.78;75.50;99033.63;5090556;28;20027;-76
2023/04/19 04:49:02;;;;;;;15.73;14.07;;;;;;;12.43;75.21;98970.25;5091663;28;20017;-76
2023/04/19 04:51:27;;;;;;;16.85;15.10;;;;;;;12.47;75.33;98973.31;5091544;28;20016;-76
2023/04/19 04:53:53;;;;;;;15.88;14.23;;;;;;;12.18;75.50;98940.13;5091065;28;20051;-75
2023/04/19 04:56:18;;;;;;;17.55;15.18;;;;;;;12.83;75.05;99029.34;5091099;28;20091;-76
2023/04/19 04:58:44;;;;;;;15.77;14.20;;;;;;;12.30;74.90;98935.84;5090996;28;20024;-76
2023/04/19 05:01:09;;;;;;;13.40;12.00;;;;;;;12.45;74.95;98967.41;5091173;28;20024;-76
2023/04/19 05:03:35;;;;;;;12.82;11.48;;;;;;;12.71;74.73;98985.94;5091106;28;20027;-76
2023/04/19 05:06:00;;;;;;;12.77;11.48;;;;;;;12.69;74.70;98988.00;5090428;28;20027;-76
2023/04/19 05:08:26;;;;;;;13.63;12.23;;;;;;;12.27;74.44;98907.94;5091079;28;20025;-76
2023/04/19 05:10:51;;;;;;;14.60;12.55;;;;;;;12.78;74.29;98993.88;5091251;28;20412;-75
2023/04/19 05:13:17;;;;;;;14.70;13.05;;;;;;;12.95;74.29;99017.09;5091196;28;20028;-74
2023/04/19 05:15:42;;;;;;;14.07;12.57;;;;;;;12.69;74.04;98972.91;5091147;28;20099;-76
2023/04/19 05:18:07;;;;;;;14.30;11.43;;;;;;;12.79;74.09;98988.38;5090764;28;20405;-76
2023/04/19 05:20:33;;;;;;;13.60;9.82;;;;;;;12.52;73.63;98944.38;5084527;28;20090;-76
2023/04/19 05:23:00;;;;;;;10.63;9.48;;;;;;;12.89;73.68;98993.25;5093901;28;20037;-76
2023/04/19 05:25:26;;;;;;;12.10;10.38;;;;;;;12.75;73.68;98970.47;5092596;28;20050;-76
2023/04/19 05:27:51;;;;;;;13.13;10.15;;;;;;;13.10;73.51;99014.22;5094904;28;21099;-76
2023/04/19 05:30:17;;;;;;;10.93;9.20;;;;;;;13.19;73.29;99047.47;5085136;28;20078;-75
2023/04/19 05:32:42;;;;;;;12.57;9.73;;;;;;;13.21;73.13;99028.72;5089593;28;20020;-76
2023/04/19 05:35:08;;;;;;;12.57;8.82;;;;;;;13.04;73.04;99004.44;5094260;28;20024;-76
2023/04/19 05:37:35;;;;;;;11.95;10.18;;;;;;;12.99;72.97;98996.31;5090390;28;20095;-76
2023/04/19 05:40:04;;;;;;;12.23;10.07;;;;;;;13.10;73.14;99010.75;5087494;28;20023;-76
2023/04/19 05:42:29;;;;;;;11.80;9.63;;;;;;;12.94;73.14;98977.56;5083747;28;20043;-75
2023/04/19 05:44:55;;;;;;;12.73;10.93;;;;;;;13.27;72.63;99031.34;5092352;28;20047;-76
2023/04/19 05:47:20;;;;;;;14.90;10.57;;;;;;;13.23;72.77;99014.22;5091918;28;20110;-76
2023/04/19 05:49:46;;;;;;;10.93;9.82;;;;;;;13.23;72.80;99021.34;5093448;28;20023;-76
2023/04/19 05:52:11;;;;;;;9.80;8.27;;;;;;;13.30;72.83;99027.47;5093221;28;20073;-76
2023/04/19 05:54:36;;;;;;;8.57;7.65;;;;;;;12.58;72.44;98922.38;5084509;28;20028;-76
2023/04/19 05:57:02;;;;;;;9.68;8.25;;;;;;;12.88;72.33;98965.13;5088122;28;20548;-77
2023/04/19 05:59:28;;;;;;;10.00;7.70;;;;;;;12.96;72.55;98983.47;5086079;28;20034;-75
2023/04/19 06:01:54;;;;;;;9.40;7.18;;;;;;;13.18;72.69;99024.63;5086904;28;20104;-76
2023/04/19 06:04:20;;;;;;;8.05;7.25;;;;;;;12.78;72.21;98956.81;5087226;28;20500;-76
2023/04/19 06:06:46;;;;;;;8.75;7.00;;;;;;;13.19;72.36;99017.50;5091452;28;20081;-75
2023/04/19 06:09:12;;;;;;;7.55;6.70;;;;;;;12.76;72.40;98951.72;5090945;28;20028;-76
2023/04/19 06:11:38;;;;;;;9.40;7.63;;;;;;;12.99;72.52;98985.69;5088926;28;20035;-76
2023/04/19 06:14:04;;;;;;;7.47;6.38;;;;;;;13.34;72.03;99036.63;5089912;28;20020;-76
2023/04/19 06:16:30;;;;;;;7.38;6.57;;;;;;;13.25;72.04;99020.13;5088264;28;20046;-76
2023/04/19 06:18:56;;;;;;;8.10;6.57;;;;;;;12.93;72.03;98967.97;5087392;28;20015;-75
2023/04/19 06:21:21;;;;;;;9.23;7.72;;;;;;;13.38;71.90;99039.69;5092856;28;20031;-75
2023/04/19 06:23:46;;;;;;;8.65;6.88;;;;;;;12.95;72.24;98979.19;5091196;28;20024;-75
2023/04/19 06:26:12;;;;;;;10.77;8.40;;;;;;;12.91;72.07;98967.38;5093216;28;20040;-75
2023/04/19 06:28:38;;;;;;;8.43;6.80;;;;;;;13.03;71.99;98984.28;5092028;28;20436;-75
2023/04/19 06:31:04;;;;;;;7.55;6.38;;;;;;;13.25;71.59;99008.72;5083868;28;20028;-76
2023/04/19 06:33:30;;;;;;;7.40;6.15;;;;;;;13.29;71.24;98996.66;5083117;28;20024;-76
2023/04/19 06:35:55;;;;;;;7.10;5.78;;;;;;;13.43;71.12;99019.50;5093191;28;20520;-76
2023/04/19 06:38:21;;;;;;;7.78;6.18;;;;;;;13.44;71.27;99025.63;5093358;28;20059;-76
2023/04/19 06:40:46;;;;;;;6.38;5.55;;;;;;;13.49;71.04;99026.63;5093329;28;20101;-76
2023/04/19 06:43:11;;;;;;;6.80;6.15;;;;;;;13.33;70.95;98987.28;5092074;28;20056;-77
2023/04/19 06:45:37;;;;;;;6.68;6.07;;;;;;;13.39;70.76;98991.78;5092445;28;21714;-77
2023/04/19 06:48:02;;;;;;;8.15;5.65;;;;;;;13.35;70.81;98975.44;5091906;28;20111;-75
2023/04/19 06:50:28;;;;;;;6.38;5.30;;;;;;;13.79;70.72;99042.81;5093345;28;20032;-76
2023/04/19 06:52:54;;;;;;;6.63;5.22;;;;;;;13.79;70.77;99045.47;5092168;28;20028;-77
2023/04/19 06:55:20;;;;;;;6.93;5.70;;;;;;;13.54;70.64;99012.72;5091649;28;20025;-75
2023/04/19 06:57:45;;;;;;;5.22;4.30;;;;;;;13.33;70.63;98988.09;5082742;28;20040;-76
2023/04/19 07:00:12;;;;;;;5.05;4.53;;;;;;;13.81;70.68;99058.53;5074053;28;20417;-76
2023/04/19 07:02:38;;;;;;;6.90;5.30;;;;;;;13.68;70.62;99036.34;5072533;28;20025;-76
2023/04/19 07:05:04;;;;;;;4.93;4.43;;;;;;;13.36;70.49;98990.31;5080696;28;20051;-76
2023/04/19 07:07:29;;;;;;;6.05;4.80;;;;;;;13.75;70.27;99044.25;5081585;28;20424;-75
2023/04/19 07:09:55;;;;;;;6.10;5.03;;;;;;;13.84;69.96;99074.03;5084994;28;20032;-75
2023/04/19 07:12:20;;;;;;;4.55;3.97;;;;;;;13.84;69.95;99069.53;5090771;28;20034;-75
2023/04/19 07:14:45;;;;;;;6.35;5.38;;;;;;;13.62;70.13;99045.13;5091614;28;20027;-76
2023/04/19 07:17:12;;;;;;;5.35;4.13;;;;;;;13.56;69.74;99035.38;5089915;28;20042;-75
2023/04/19 07:19:38;;;;;;;5.18;3.65;;;;;;;13.42;69.46;99025.00;5082289;28;20111;-75
2023/04/19 07:22:05;;;;;;;4.40;3.67;;;;;;;13.81;69.36;99085.06;5078651;28;20107;-76
2023/04/19 07:24:30;;;;;;;4.45;3.83;;;;;;;13.43;69.31;99019.50;5091221;28;20100;-76
2023/04/19 07:26:56;;;;;;;7.82;4.47;;;;;;;13.32;69.11;99002.38;5089242;28;20048;-75
2023/04/19 07:29:21;;;;;;;5.15;3.92;;;;;;;13.35;69.00;99017.84;5085052;28;20036;-75
2023/04/19 07:31:47;;;;;;;3.88;3.10;;;;;;;13.56;69.07;99037.19;5090125;28;20058;-75
2023/04/19 07:34:12;;;;;;;4.20;3.75;;;;;;;13.66;69.10;99045.53;5078531;28;20111;-75
2023/04/19 07:36:38;;;;;;;6.13;4.03;;;;;;;13.78;68.75;99064.25;5081541;28;20036;-75
2023/04/19 07:39:06;;;;;;;5.68;3.85;;;;;;;13.91;68.73;99085.44;5086825;28;20035;-76
2023/04/19 07:41:31;;;;;;;6.10;5.05;;;;;;;13.93;68.71;99094.81;5082437;28;20032;-76
2023/04/19 07:43:57;;;;;;;5.57;3.78;;;;;;;13.76;68.80;99075.09;5087664;28;20511;-76
2023/04/19 07:46:23;;;;;;;11.05;9.85;;;;;;;13.42;68.53;99003.78;5071624;28;20489;-77
2023/04/19 07:48:48;;;;;;;10.23;9.10;;;;;;;13.68;68.91;99041.63;5082367;28;20050;-76
2023/04/19 07:51:15;;;;;;;6.72;6.03;;;;;;;14.01;68.79;99077.84;5091591;28;20110;-77
2023/04/19 07:53:42;;;;;;;10.25;8.88;;;;;;;14.14;69.04;99098.22;5091632;28;20032;-76
2023/04/19 07:56:08;;;;;;;4.80;4.03;;;;;;;13.73;68.66;99038.34;5090054;28;20024;-76
2023/04/19 07:58:38;;;;;;;4.72;4.22;;;;;;;14.16;68.76;99102.28;5091587;28;20020;-76
2023/04/19 08:01:04;;;;;;;5.15;4.68;;;;;;;14.19;68.75;99107.19;5089701;28;20030;-76
2023/04/19 08:03:30;;;;;;;5.15;4.65;;;;;;;14.20;68.34;99106.16;5091359;28;20034;-76
2023/04/19 08:05:56;;;;;;;5.72;4.75;;;;;;;14.10;68.24;99086.38;5090870;28;20054;-75
2023/04/19 08:08:23;;;;;;;4.53;3.70;;;;;;;14.20;68.19;99108.00;5091289;28;20024;-76
2023/04/19 08:10:48;;;;;;;5.35;4.68;;;;;;;13.64;68.20;99018.41;5091341;28;20020;-76
2023/04/19 08:13:14;;;;;;;5.35;4.82;;;;;;;13.80;68.28;99033.84;5090261;28;20489;-76
2023/04/19 08:15:39;;;;;;;4.55;3.97;;;;;;;13.59;67.97;99005.75;5088337;28;20051;-77
2023/04/19 08:18:05;;;;;;;7.10;6.20;;;;;;;13.79;68.19;99044.66;5083417;28;20130;-75
2023/04/19 08:20:31;;;;;;;6.82;5.32;;;;;;;13.71;68.06;99028.97;5087035;28;20039;-75
2023/04/19 08:22:57;;;;;;;3.75;3.45;;;;;;;13.78;68.26;99043.84;5069837;28;20029;-75
2023/04/19 08:25:27;;;;;;;5.25;4.25;;;;;;;14.24;67.75;99107.34;5071035;28;20052;-76
2023/04/19 08:27:57;;;;;;;4.05;3.70;;;;;;;13.70;67.71;99036.13;5071541;28;20052;-77
2023/04/19 08:30:23;;;;;;;4.63;4.00;;;;;;;14.28;68.18;99118.38;5070636;28;20023;-75
2023/04/19 08:32:48;;;;;;;5.85;5.25;;;;;;;14.09;68.14;99072.28;5070972;28;20024;-76
2023/04/19 08:35:14;;;;;;;8.68;6.25;;;;;;;14.07;68.12;99063.72;5070174;28;20473;-75
2023/04/19 08:37:39;;;;;;;6.53;4.72;;;;;;;13.88;68.23;99036.25;5070929;28;20390;-75
2023/04/19 08:40:05;;;;;;;5.43;3.45;;;;;;;14.12;67.94;99076.34;5069864;28;20067;-75
2023/04/19 08:42:32;;;;;;;4.60;4.13;;;;;;;13.89;67.49;99037.88;5070552;28;20016;-74
2023/04/19 08:45:02;;;;;;;4.60;4.15;;;;;;;14.42;67.69;99112.00;5070838;28;20028;-76
2023/04/19 08:47:28;;;;;;;4.05;3.60;;;;;;;14.43;67.71;99107.50;5071015;28;20397;-76
2023/04/19 08:49:55;;;;;;;5.57;3.78;;;;;;;14.36;67.52;99098.72;5070980;28;20028;-75
2023/04/19 08:52:23;;;;;;;6.00;4.78;;;;;;;14.35;67.55;99110.38;5070803;28;20044;-76
2023/04/19 08:54:49;;;;;;;3.70;3.40;;;;;;;14.48;67.32;99105.00;5070371;28;20493;-75
2023/04/19 08:57:15;;;;;;;4.03;3.50;;;;;;;13.96;67.66;99035.19;5096728;28;20020;-75
2023/04/19 08:59:44;;;;;;;4.80;3.80;;;;;;;14.57;67.38;99111.69;5111228;28;20027;-75
2023/04/19 09:02:10;;;;;;;5.85;3.78;;;;;;;14.43;67.12;99084.41;5097993;28;20034;-74
2023/04/19 09:04:35;;;;;;;5.75;4.47;;;;;;;14.31;67.25;99068.31;5086156;28;20035;-74
2023/04/19 09:07:00;;;;;;;4.72;4.30;;;;;;;14.57;67.47;99109.03;5089062;28;20115;-77
2023/04/19 09:09:28;;;;;;;7.20;5.93;;;;;;;14.70;67.56;99118.75;5090135;28;20032;-76
2023/04/19 09:11:54;;;;;;;4.43;4.03;;;;;;;14.57;67.62;99088.59;5089588;28;20035;-73
2023/04/19 09:14:21;;;;;;;6.32;5.70;;;;;;;14.78;67.48;99118.50;5090848;28;20455;-75
2023/04/19 09:16:47;;;;;;;7.80;6.13;;;;;;;14.80;67.33;99119.09;5091103;28;20028;-76
2023/04/19 09:19:12;;;;;;;7.97;6.10;;;;;;;14.69;67.35;99103.84;5090791;28;20093;-76
2023/04/19 09:21:39;;;;;;;6.55;4.38;;;;;;;14.78;67.29;99121.16;5088886;28;20498;-76
2023/04/19 09:24:05;;;;;;;6.78;6.07;;;;;;;14.75;67.42;99126.91;5088902;28;20423;-74
2023/04/19 09:26:31;;;;;;;5.93;5.28;;;;;;;14.68;67.76;99105.69;5090418;28;20131;-74
2023/04/19 09:29:02;;;;;;;6.53;5.30;;;;;;;14.12;67.70;99016.13;5089980;28;20036;-75
2023/04/19 09:31:28;;;;;;;6.70;5.25;;;;;;;14.17;67.91;99028.75;5088272;28;20412;-75
2023/04/19 09:33:54;;;;;;;6.43;5.60;;;;;;;14.51;68.08;99078.00;5084187;28;20457;-75
2023/04/19 09:36:31;;;;;;;6.97;5.22;;;;;;;14.34;68.11;99055.63;5082556;28;20032;-76
2023/04/19 09:38:57;;;;;;;6.47;5.20;;;;;;;14.84;67.95;99121.09;5083204;28;20373;-75
2023/04/19 09:41:23;;;;;;;8.10;6.82;;;;;;;14.75;67.83;99101.13;5087720;28;20028;-75
2023/04/19 09:43:50;;;;;;;7.00;6.25;;;;;;;14.72;67.92;99092.78;5087302;28;20024;-75
2023/04/19 09:46:35;;;;;;;5.82;5.22;;;;;;;14.84;68.25;99112.31;5090541;28;20093;-74
2023/04/19 09:49:15;;;;;;;7.45;6.20;;;;;;;14.88;67.73;99114.34;5073998;28;20024;-74
2023/04/19 09:51:45;;;;;;;9.25;7.63;;;;;;;14.92;67.66;99115.56;5089829;28;20047;-78
2023/04/19 09:54:12;;;;;;;10.80;6.85;;;;;;;14.84;67.76;99093.72;5088947;28;20070;-76
2023/04/19 09:56:38;;;;;;;5.07;3.70;;;;;;;14.93;66.85;99122.50;5090482;28;20020;-75
2023/04/19 09:59:05;;;;;;;6.25;4.35;;;;;;;14.93;66.87;99098.56;5089178;28;20030;-74
2023/04/19 10:01:35;;;;;;;4.85;3.72;;;;;;;13.91;65.98;98988.06;5087258;28;20107;-75
2023/04/19 10:04:04;;;;;;;5.43;4.00;;;;;;;14.43;66.41;99028.63;5084938;28;20116;-75
2023/04/19 10:06:30;;;;;;;2.92;2.63;;;;;;;14.96;66.30;99102.66;5087245;28;20119;-76
2023/04/19 10:08:59;;;;;;;3.42;3.10;;;;;;;14.73;65.67;99051.91;5090640;28;20025;-76
2023/04/19 10:11:30;;;;;;;4.05;3.00;;;;;;;15.02;65.68;99100.97;5089799;28;20531;-75
2023/04/19 10:14:01;;;;;;;2.90;2.60;;;;;;;14.85;65.30;99064.25;5091126;28;20531;-75
2023/04/19 10:16:27;;;;;;;4.17;3.60;;;;;;;15.00;65.08;99077.25;5084824;28;20040;-76
2023/04/19 10:18:53;;;;;;;4.35;2.58;;;;;;;15.03;64.92;99082.13;5084126;28;20028;-76
2023/04/19 10:21:19;;;;;;;2.47;2.28;;;;;;;15.06;64.73;99086.19;5089916;28;20481;-75
2023/04/19 10:23:45;;;;;;;2.70;2.50;;;;;;;14.99;64.59;99062.34;5088387;28;20028;-76
2023/04/19 10:26:11;;;;;;;2.22;1.65;;;;;;;15.03;63.93;99052.88;5084966;28;20106;-76
2023/04/19 10:28:36;;;;;;;3.13;2.00;;;;;;;15.36;63.21;99103.09;5086790;28;20028;-77
2023/04/19 10:31:03;;;;;;;2.17;1.98;;;;;;;15.37;62.96;99072.00;5091539;28;20027;-74
2023/04/19 10:33:36;;;;;;;2.83;2.13;;;;;;;15.47;62.07;99093.59;5086882;28;20028;-74
2023/04/19 10:36:03;;;;;;;2.53;1.88;;;;;;;14.93;62.20;98991.44;5090579;28;20036;-74
2023/04/19 10:38:43;;;;;;;2.95;2.00;;;;;;;15.67;62.07;99083.59;5087998;28;20036;-75
2023/04/19 10:41:13;;;;;;;2.85;1.70;;;;;;;15.80;61.59;99078.13;5089502;28;20028;-74
2023/04/19 10:43:40;;;;;;;2.95;1.58;;;;;;;15.48;61.48;99026.03;5085816;28;20024;-77
2023/04/19 10:46:30;;;;;;;5.80;2.58;;;;;;;16.17;60.88;99081.53;5077909;28;20497;-75
2023/04/19 10:48:57;;;;;;;2.75;1.80;;;;;;;16.30;60.24;99072.56;5086576;28;20055;-77
2023/04/19 10:51:34;;;;;;;2.25;1.73;;;;;;;16.47;59.78;99070.91;5090590;28;20027;-76
2023/04/19 10:54:04;;;;;;;2.13;1.92;;;;;;;16.64;58.96;99079.06;5085498;28;20016;-77
2023/04/19 10:56:33;;;;;;;3.15;2.20;;;;;;;16.83;59.13;99069.97;5081870;28;20036;-76
2023/04/19 10:59:06;;;;;;;2.53;1.88;;;;;;;17.00;58.18;99069.28;5088224;28;20031;-77
2023/04/19 11:01:41;;;;;;;3.78;2.38;;;;;;;17.23;57.23;99069.31;5079652;28;20118;-76
2023/04/19 11:04:12;;;;;;;5.35;3.35;;;;;;;17.30;56.45;99029.16;5089524;28;20435;-77
2023/04/19 11:06:56;;;;;;;2.72;1.10;;;;;;;17.65;53.38;99000.53;5087481;28;20513;-77
2023/04/19 11:09:25;;;;;;;1.50;1.00;;;;;;;18.03;53.34;99005.31;5087966;28;20071;-77
2023/04/19 11:11:57;;;;;;;3.25;1.90;;;;;;;18.72;50.00;99064.84;5083068;28;20458;-76
2023/04/19 11:14:24;;;;;;;2.30;1.17;;;;;;;18.68;51.19;99015.59;5079264;28;20118;-76
2023/04/19 11:16:49;;;;;;;3.63;1.55;;;;;;;19.28;50.50;99036.25;5083424;28;20031;-76
2023/04/19 11:19:15;;;;;;;2.45;1.63;;;;;;;19.62;49.55;99023.63;5087727;28;20111;-77
2023/04/19 11:21:41;;;;;;;3.28;1.30;;;;;;;20.34;48.58;99056.59;5087871;28;20031;-75
2023/04/19 11:24:08;;;;;;;4.47;1.60;;;;;;;20.70;46.96;99061.25;5085119;28;20484;-76
2023/04/19 11:26:33;;;;;;;4.45;2.25;;;;;;;21.00;46.73;99058.03;5088044;28;20047;-75
2023/04/19 11:29:00;;;;;;;2.92;1.45;;;;;;;21.21;46.10;99053.59;5083877;28;20109;-75